Terminal Aerodrome Forecast
Issued by NWS Jackson, KY

Home | Current Version | Previous Version | Text Only | Print | Product List | Glossary On
Versions: 1 2 3 4 5 6 7 8 9 10 11 12 13 14 15
000
FTUS43 KJKL 141318 AAB
TAFLOZ
TAF AMD
KLOZ 141318Z 1413/1512 32008G15KT P6SM OVC029
     FM141400 31007KT P6SM SCT035 BKN050
     FM150200 VRB03KT P6SM SCT150=

USA.gov is the U.S. government's official web portal to all federal, state and local government web resources and services.